Time,TemperatureF,DewpointF,PressureIn,WindDirection,WindDirectionDegrees,WindSpeedMPH,WindSpeedGustMPH,Humidity,HourlyPrecipIn,Conditions,Clouds,dailyrainin,SoftwareType,DateUTC
2013-03-25 00:03:00,43.0,19.0,30.25,ENE,58,2.0,7.0,37,0.00,,,-99.99,,2013-03-25 05:03:00,
2013-03-25 00:12:00,43.0,19.0,30.25,ENE,58,2.0,7.0,37,0.00,,,-99.99,,2013-03-25 05:12:00,
2013-03-25 00:22:00,43.0,19.0,30.26,ENE,75,4.0,5.0,38,0.00,,,-99.99,,2013-03-25 05:22:00,
2013-03-25 00:32:00,42.0,18.0,30.26,ENE,58,3.0,6.0,38,0.00,,,-99.99,,2013-03-25 05:32:00,
2013-03-25 00:42:00,42.0,18.0,30.26,ENE,58,3.0,6.0,38,0.00,,,-99.99,,2013-03-25 05:42:00,
2013-03-25 00:52:00,42.0,19.0,30.27,NE,56,1.0,4.0,39,0.00,,,-99.99,,2013-03-25 05:52:00,
2013-03-25 01:02:00,42.0,19.0,30.27,NE,43,2.0,6.0,39,0.00,,,-99.99,,2013-03-25 06:02:00,
2013-03-25 01:12:00,42.0,19.0,30.27,NE,43,2.0,6.0,39,0.00,,,-99.99,,2013-03-25 06:12:00,
2013-03-25 01:22:00,41.0,18.0,30.28,NE,44,1.0,3.0,39,0.00,,,-99.99,,2013-03-25 06:22:00,
2013-03-25 01:32:00,40.0,18.0,30.28,NE,41,2.0,4.0,40,0.00,,,-99.99,,2013-03-25 06:32:00,
2013-03-25 01:42:00,40.0,18.0,30.28,NE,41,2.0,4.0,40,0.00,,,-99.99,,2013-03-25 06:42:00,
2013-03-25 01:52:00,40.0,18.0,30.28,NE,41,2.0,4.0,40,0.00,,,-99.99,,2013-03-25 06:52:00,
2013-03-25 02:02:00,39.0,18.0,30.29,NNE,16,2.0,4.0,42,0.00,,,-99.99,,2013-03-25 07:02:00,
2013-03-25 02:12:00,39.0,18.0,30.29,NNE,16,2.0,4.0,42,0.00,,,-99.99,,2013-03-25 07:12:00,
2013-03-25 02:22:00,39.0,17.0,30.29,NE,42,1.0,5.0,41,0.00,,,-99.99,,2013-03-25 07:22:00,
2013-03-25 02:32:00,39.0,17.0,30.29,NE,42,1.0,5.0,41,0.00,,,-99.99,,2013-03-25 07:32:00,
2013-03-25 02:42:00,39.0,17.0,30.29,NE,42,1.0,5.0,41,0.00,,,-99.99,,2013-03-25 07:42:00,
2013-03-25 02:53:00,39.0,17.0,30.29,NE,42,1.0,5.0,41,0.00,,,-99.99,,2013-03-25 07:53:00,
2013-03-25 03:02:00,40.0,16.0,30.30,NNE,23,2.0,7.0,38,0.00,,,-99.99,,2013-03-25 08:02:00,
2013-03-25 03:12:00,40.0,16.0,30.30,NNE,23,2.0,7.0,38,0.00,,,-99.99,,2013-03-25 08:12:00,
2013-03-25 03:22:00,40.0,16.0,30.31,NE,56,2.0,7.0,37,0.00,,,-99.99,,2013-03-25 08:22:00,
2013-03-25 03:32:00,40.0,16.0,30.32,NE,44,1.0,7.0,37,0.00,,,-99.99,,2013-03-25 08:32:00,
2013-03-25 03:43:00,40.0,16.0,30.32,NE,44,1.0,7.0,37,0.00,,,-99.99,,2013-03-25 08:43:00,
2013-03-25 03:52:00,39.0,15.0,30.31,NE,56,2.0,6.0,37,0.00,,,-99.99,,2013-03-25 08:52:00,
2013-03-25 04:02:00,39.0,16.0,30.32,ENE,63,7.0,11.0,38,0.00,,,-99.99,,2013-03-25 09:02:00,
2013-03-25 04:12:00,39.0,16.0,30.32,ENE,63,7.0,11.0,38,0.00,,,-99.99,,2013-03-25 09:12:00,
2013-03-25 04:22:00,38.0,15.0,30.33,NE,47,9.0,12.0,39,0.00,,,-99.99,,2013-03-25 09:22:00,
2013-03-25 04:33:00,38.0,15.0,30.34,ENE,63,2.0,10.0,39,0.00,,,-99.99,,2013-03-25 09:33:00,
2013-03-25 04:43:00,38.0,15.0,30.34,ENE,63,2.0,10.0,39,0.00,,,-99.99,,2013-03-25 09:43:00,
2013-03-25 04:52:00,37.0,16.0,30.34,North,355,2.0,8.0,41,0.00,,,-99.99,,2013-03-25 09:52:00,
2013-03-25 05:03:00,37.0,16.0,30.35,NE,44,4.0,11.0,42,0.00,,,-99.99,,2013-03-25 10:03:00,
2013-03-25 05:12:00,37.0,16.0,30.35,NE,44,4.0,11.0,42,0.00,,,-99.99,,2013-03-25 10:12:00,
2013-03-25 05:22:00,36.0,15.0,30.35,NNE,32,3.0,12.0,42,0.00,,,-99.99,,2013-03-25 10:22:00,
2013-03-25 05:32:00,36.0,16.0,30.35,North,11,6.0,11.0,43,0.00,,,-99.99,,2013-03-25 10:32:00,
2013-03-25 05:42:00,36.0,16.0,30.35,North,11,6.0,11.0,43,0.00,,,-99.99,,2013-03-25 10:42:00,
2013-03-25 05:53:00,36.0,16.0,30.35,North,11,6.0,11.0,43,0.00,,,-99.99,,2013-03-25 10:53:00,
2013-03-25 06:03:00,36.0,16.0,30.35,North,11,6.0,11.0,43,0.00,,,-99.99,,2013-03-25 11:03:00,
2013-03-25 06:12:00,33.0,15.0,30.38,NE,44,0.0,5.0,48,0.00,,,-99.99,,2013-03-25 11:12:00,
2013-03-25 06:23:00,33.0,15.0,30.38,NE,44,0.0,5.0,48,0.00,,,-99.99,,2013-03-25 11:23:00,
2013-03-25 06:32:00,33.0,15.0,30.40,East,91,1.0,5.0,48,0.00,,,-99.99,,2013-03-25 11:32:00,
2013-03-25 06:42:00,33.0,15.0,30.40,East,91,1.0,5.0,48,0.00,,,-99.99,,2013-03-25 11:42:00,
2013-03-25 06:52:00,33.0,15.0,30.40,East,91,1.0,5.0,48,0.00,,,-99.99,,2013-03-25 11:52:00,
2013-03-25 07:02:00,32.0,15.0,30.42,NE,53,1.0,2.0,50,0.00,,,-99.99,,2013-03-25 12:02:00,
2013-03-25 07:12:00,32.0,15.0,30.42,NE,53,1.0,2.0,50,0.00,,,-99.99,,2013-03-25 12:12:00,
2013-03-25 07:23:00,32.0,15.0,30.42,NE,53,1.0,2.0,50,0.00,,,-99.99,,2013-03-25 12:23:00,
2013-03-25 07:32:00,31.0,15.0,30.43,North,4,3.0,3.0,52,0.00,,,-99.99,,2013-03-25 12:32:00,
2013-03-25 07:42:00,31.0,15.0,30.43,North,4,3.0,3.0,52,0.00,,,-99.99,,2013-03-25 12:42:00,
2013-03-25 07:53:00,31.0,15.0,30.43,North,4,3.0,3.0,52,0.00,,,-99.99,,2013-03-25 12:53:00,
2013-03-25 08:02:00,31.0,15.0,30.43,North,4,3.0,3.0,52,0.00,,,-99.99,,2013-03-25 13:02:00,
2013-03-25 08:12:00,31.0,15.0,30.43,North,4,3.0,3.0,52,0.00,,,-99.99,,2013-03-25 13:12:00,
2013-03-25 08:32:00,33.0,16.0,30.46,NE,53,3.0,6.0,50,0.00,,,-99.99,,2013-03-25 13:32:00,
2013-03-25 08:43:00,33.0,16.0,30.46,NE,53,3.0,6.0,50,0.00,,,-99.99,,2013-03-25 13:43:00,
2013-03-25 08:52:00,34.0,16.0,30.47,ENE,71,1.0,6.0,48,0.00,,,-99.99,,2013-03-25 13:52:00,
2013-03-25 09:03:00,35.0,16.0,30.47,NE,49,7.0,9.0,45,0.00,,,-99.99,,2013-03-25 14:03:00,
2013-03-25 09:12:00,35.0,16.0,30.47,NE,49,7.0,9.0,45,0.00,,,-99.99,,2013-03-25 14:12:00,
2013-03-25 09:22:00,35.0,16.0,30.47,NE,49,7.0,9.0,45,0.00,,,-99.99,,2013-03-25 14:22:00,
2013-03-25 09:32:00,38.0,15.0,30.49,ENE,72,5.0,14.0,38,0.00,,,-99.99,,2013-03-25 14:32:00,
2013-03-25 09:43:00,38.0,15.0,30.49,ENE,72,5.0,14.0,38,0.00,,,-99.99,,2013-03-25 14:43:00,
2013-03-25 09:53:00,39.0,14.0,30.50,NE,56,2.0,11.0,35,0.00,,,-99.99,,2013-03-25 14:53:00,
2013-03-25 10:02:00,40.0,13.0,30.51,ENE,65,3.0,13.0,32,0.00,,,-99.99,,2013-03-25 15:02:00,
2013-03-25 10:12:00,40.0,13.0,30.51,ENE,65,3.0,13.0,32,0.00,,,-99.99,,2013-03-25 15:12:00,
2013-03-25 10:22:00,40.0,13.0,30.51,ENE,65,3.0,13.0,32,0.00,,,-99.99,,2013-03-25 15:22:00,
2013-03-25 10:32:00,41.0,12.0,30.51,ENE,72,7.0,13.0,30,0.00,,,-99.99,,2013-03-25 15:32:00,
2013-03-25 10:42:00,41.0,12.0,30.51,ENE,72,7.0,13.0,30,0.00,,,-99.99,,2013-03-25 15:42:00,
2013-03-25 10:53:00,42.0,12.0,30.51,ENE,72,7.0,12.0,29,0.00,,,-99.99,,2013-03-25 15:53:00,
2013-03-25 11:03:00,43.0,12.0,30.51,ESE,108,9.0,11.0,28,0.00,,,-99.99,,2013-03-25 16:03:00,
2013-03-25 11:12:00,43.0,12.0,30.51,ESE,108,9.0,11.0,28,0.00,,,-99.99,,2013-03-25 16:12:00,
2013-03-25 11:23:00,43.0,12.0,30.51,ESE,108,9.0,11.0,28,0.00,,,-99.99,,2013-03-25 16:23:00,
2013-03-25 11:33:00,45.0,11.0,30.51,ENE,77,7.0,11.0,25,0.00,,,-99.99,,2013-03-25 16:33:00,
2013-03-25 11:42:00,45.0,11.0,30.51,ENE,77,7.0,11.0,25,0.00,,,-99.99,,2013-03-25 16:42:00,
2013-03-25 11:53:00,45.0,10.0,30.50,East,101,2.0,11.0,24,0.00,,,-99.99,,2013-03-25 16:53:00,
2013-03-25 12:02:00,46.0,12.0,30.50,ENE,77,3.0,11.0,25,0.00,,,-99.99,,2013-03-25 17:02:00,
2013-03-25 12:12:00,46.0,12.0,30.50,ENE,77,3.0,11.0,25,0.00,,,-99.99,,2013-03-25 17:12:00,
2013-03-25 12:23:00,47.0,12.0,30.49,East,79,5.0,13.0,24,0.00,,,-99.99,,2013-03-25 17:23:00,
2013-03-25 12:32:00,48.0,14.0,30.48,SSE,150,2.0,10.0,25,0.00,,,-99.99,,2013-03-25 17:32:00,
2013-03-25 12:42:00,48.0,14.0,30.48,SSE,150,2.0,10.0,25,0.00,,,-99.99,,2013-03-25 17:42:00,
2013-03-25 12:53:00,48.0,14.0,30.48,SSE,150,2.0,10.0,25,0.00,,,-99.99,,2013-03-25 17:53:00,
2013-03-25 13:03:00,49.0,11.0,30.47,ESE,103,9.0,13.0,21,0.00,,,-99.99,,2013-03-25 18:03:00,
2013-03-25 13:12:00,49.0,11.0,30.47,ESE,103,9.0,13.0,21,0.00,,,-99.99,,2013-03-25 18:12:00,
2013-03-25 13:23:00,50.0,11.0,30.47,East,92,7.0,11.0,20,0.00,,,-99.99,,2013-03-25 18:23:00,
2013-03-25 13:33:00,51.0,9.0,30.46,NNE,29,1.0,13.0,18,0.00,,,-99.99,,2013-03-25 18:33:00,
2013-03-25 13:42:00,51.0,9.0,30.46,NNE,29,1.0,13.0,18,0.00,,,-99.99,,2013-03-25 18:42:00,
2013-03-25 13:52:00,51.0,9.0,30.46,NNE,29,1.0,13.0,18,0.00,,,-99.99,,2013-03-25 18:52:00,
2013-03-25 14:03:00,51.0,10.0,30.44,ESE,119,9.0,11.0,19,0.00,,,-99.99,,2013-03-25 19:03:00,
2013-03-25 14:13:00,51.0,10.0,30.44,ESE,119,9.0,11.0,19,0.00,,,-99.99,,2013-03-25 19:13:00,
2013-03-25 14:23:00,51.0,9.0,30.43,NE,49,6.0,12.0,18,0.00,,,-99.99,,2013-03-25 19:23:00,
2013-03-25 14:33:00,52.0,11.0,30.42,ESE,102,8.0,10.0,19,0.00,,,-99.99,,2013-03-25 19:33:00,
2013-03-25 14:42:00,52.0,11.0,30.42,ESE,102,8.0,10.0,19,0.00,,,-99.99,,2013-03-25 19:42:00,
2013-03-25 14:52:00,53.0,12.0,30.41,East,82,7.0,11.0,19,0.00,,,-99.99,,2013-03-25 19:52:00,
2013-03-25 15:02:00,52.0,10.0,30.40,ESE,120,5.0,13.0,18,0.00,,,-99.99,,2013-03-25 20:02:00,
2013-03-25 15:12:00,52.0,10.0,30.40,ESE,120,5.0,13.0,18,0.00,,,-99.99,,2013-03-25 20:12:00,
2013-03-25 15:22:00,53.0,11.0,30.40,ENE,71,4.0,10.0,18,0.00,,,-99.99,,2013-03-25 20:22:00,
2013-03-25 15:32:00,53.0,11.0,30.40,ENE,71,4.0,10.0,18,0.00,,,-99.99,,2013-03-25 20:32:00,
2013-03-25 15:42:00,53.0,11.0,30.40,ENE,71,4.0,10.0,18,0.00,,,-99.99,,2013-03-25 20:42:00,
2013-03-25 15:52:00,54.0,11.0,30.38,ESE,110,7.0,13.0,18,0.00,,,-99.99,,2013-03-25 20:52:00,
2013-03-25 16:02:00,54.0,11.0,30.37,SE,134,0.0,8.0,18,0.00,,,-99.99,,2013-03-25 21:02:00,
2013-03-25 16:12:00,54.0,11.0,30.37,SE,134,0.0,8.0,18,0.00,,,-99.99,,2013-03-25 21:12:00,
2013-03-25 16:22:00,55.0,12.0,30.37,NE,44,5.0,13.0,18,0.00,,,-99.99,,2013-03-25 21:22:00,
2013-03-25 16:33:00,55.0,12.0,30.36,East,99,7.0,13.0,18,0.00,,,-99.99,,2013-03-25 21:33:00,
2013-03-25 16:42:00,55.0,12.0,30.36,East,99,7.0,13.0,18,0.00,,,-99.99,,2013-03-25 21:42:00,
2013-03-25 16:52:00,55.0,12.0,30.36,NW,305,0.0,12.0,18,0.00,,,-99.99,,2013-03-25 21:52:00,
2013-03-25 17:03:00,56.0,12.0,30.35,SE,146,3.0,9.0,17,0.00,,,-99.99,,2013-03-25 22:03:00,
2013-03-25 17:12:00,56.0,12.0,30.35,SE,146,3.0,9.0,17,0.00,,,-99.99,,2013-03-25 22:12:00,
2013-03-25 17:23:00,56.0,12.0,30.35,SE,146,3.0,9.0,17,0.00,,,-99.99,,2013-03-25 22:23:00,
2013-03-25 17:32:00,56.0,12.0,30.35,SE,146,3.0,9.0,17,0.00,,,-99.99,,2013-03-25 22:32:00,
2013-03-25 17:42:00,56.0,12.0,30.35,SE,146,3.0,9.0,17,0.00,,,-99.99,,2013-03-25 22:42:00,
2013-03-25 18:03:00,56.0,13.0,30.35,East,86,6.0,8.0,18,0.00,,,-99.99,,2013-03-25 23:03:00,
2013-03-25 18:12:00,56.0,13.0,30.35,East,86,6.0,8.0,18,0.00,,,-99.99,,2013-03-25 23:12:00,
2013-03-25 18:23:00,56.0,12.0,30.35,NNE,18,3.0,8.0,17,0.00,,,-99.99,,2013-03-25 23:23:00,
2013-03-25 18:32:00,56.0,13.0,30.35,NNW,344,4.0,7.0,18,0.00,,,-99.99,,2013-03-25 23:32:00,
2013-03-25 18:42:00,56.0,13.0,30.35,NNW,344,4.0,7.0,18,0.00,,,-99.99,,2013-03-25 23:42:00,
2013-03-25 18:52:00,56.0,12.0,30.35,NNW,334,1.0,7.0,17,0.00,,,-99.99,,2013-03-25 23:52:00,
2013-03-25 19:02:00,56.0,13.0,30.35,East,84,3.0,4.0,18,0.00,,,-99.99,,2013-03-26 00:02:00,
2013-03-25 19:12:00,56.0,13.0,30.35,East,84,3.0,4.0,18,0.00,,,-99.99,,2013-03-26 00:12:00,
2013-03-25 19:22:00,56.0,13.0,30.35,NNE,25,4.0,6.0,18,0.00,,,-99.99,,2013-03-26 00:22:00,
2013-03-25 19:32:00,55.0,12.0,30.36,North,8,2.0,8.0,18,0.00,,,-99.99,,2013-03-26 00:32:00,
2013-03-25 19:42:00,55.0,12.0,30.36,North,8,2.0,8.0,18,0.00,,,-99.99,,2013-03-26 00:42:00,
2013-03-25 19:52:00,55.0,14.0,30.36,North,6,0.0,6.0,19,0.00,,,-99.99,,2013-03-26 00:52:00,
2013-03-25 20:02:00,54.0,14.0,30.37,NE,49,5.0,6.0,20,0.00,,,-99.99,,2013-03-26 01:02:00,
2013-03-25 20:12:00,54.0,14.0,30.37,NE,49,5.0,6.0,20,0.00,,,-99.99,,2013-03-26 01:12:00,
2013-03-25 20:22:00,52.0,14.0,30.37,NNE,13,5.0,6.0,22,0.00,,,-99.99,,2013-03-26 01:22:00,
2013-03-25 20:32:00,51.0,15.0,30.38,NE,54,2.0,5.0,23,0.00,,,-99.99,,2013-03-26 01:32:00,
2013-03-25 20:42:00,51.0,15.0,30.38,NE,54,2.0,5.0,23,0.00,,,-99.99,,2013-03-26 01:42:00,
2013-03-25 20:52:00,50.0,16.0,30.40,NE,53,2.0,4.0,25,0.00,,,-99.99,,2013-03-26 01:52:00,
2013-03-25 21:02:00,49.0,15.0,30.40,ENE,75,2.0,3.0,25,0.00,,,-99.99,,2013-03-26 02:02:00,
2013-03-25 21:12:00,49.0,15.0,30.40,ENE,75,2.0,3.0,25,0.00,,,-99.99,,2013-03-26 02:12:00,
2013-03-25 21:22:00,49.0,15.0,30.40,ENE,75,2.0,3.0,25,0.00,,,-99.99,,2013-03-26 02:22:00,
2013-03-25 21:32:00,48.0,16.0,30.42,NE,53,2.0,4.0,27,0.00,,,-99.99,,2013-03-26 02:32:00,
2013-03-25 21:42:00,48.0,16.0,30.42,NE,53,2.0,4.0,27,0.00,,,-99.99,,2013-03-26 02:42:00,
2013-03-25 21:52:00,48.0,16.0,30.42,NE,49,1.0,5.0,27,0.00,,,-99.99,,2013-03-26 02:52:00,
2013-03-25 22:02:00,48.0,16.0,30.42,NE,49,1.0,5.0,27,0.00,,,-99.99,,2013-03-26 03:02:00,
2013-03-25 22:12:00,48.0,16.0,30.42,NE,49,1.0,5.0,27,0.00,,,-99.99,,2013-03-26 03:12:00,
2013-03-25 22:22:00,47.0,16.0,30.44,ENE,65,3.0,7.0,29,0.00,,,-99.99,,2013-03-26 03:22:00,
2013-03-25 22:33:00,47.0,16.0,30.44,ENE,65,3.0,7.0,29,0.00,,,-99.99,,2013-03-26 03:33:00,
2013-03-25 22:43:00,47.0,16.0,30.44,ENE,65,3.0,7.0,29,0.00,,,-99.99,,2013-03-26 03:43:00,
2013-03-25 22:53:00,46.0,16.0,30.45,ENE,60,0.0,6.0,30,0.00,,,-99.99,,2013-03-26 03:53:00,
2013-03-25 23:03:00,46.0,17.0,30.46,NE,47,2.0,6.0,31,0.00,,,-99.99,,2013-03-26 04:03:00,
2013-03-25 23:12:00,46.0,17.0,30.46,NE,47,2.0,6.0,31,0.00,,,-99.99,,2013-03-26 04:12:00,
2013-03-25 23:23:00,46.0,17.0,30.47,NE,40,6.0,9.0,31,0.00,,,-99.99,,2013-03-26 04:23:00,
2013-03-25 23:32:00,46.0,17.0,30.47,NE,40,6.0,9.0,31,0.00,,,-99.99,,2013-03-26 04:32:00,
2013-03-25 23:43:00,46.0,17.0,30.47,NE,40,6.0,9.0,31,0.00,,,-99.99,,2013-03-26 04:43:00,
2013-03-25 23:52:00,45.0,16.0,30.48,NE,53,5.0,9.0,31,0.00,,,-99.99,,2013-03-26 04:52:00,